createdAt,value
2023-05-01T00:01:39.975Z,3.60
2023-05-01T00:04:06.931Z,4.00
2023-05-01T00:06:34.136Z,4.00
2023-05-01T00:09:01.008Z,4.10
2023-05-01T00:11:28.019Z,4.10
2023-05-01T00:13:54.757Z,4.20
2023-05-01T00:16:21.683Z,4.00
2023-05-01T00:18:48.580Z,3.60
2023-05-01T00:21:15.644Z,3.90
2023-05-01T00:23:42.359Z,3.80
2023-05-01T00:26:09.322Z,4.20
2023-05-01T00:28:36.469Z,3.70
2023-05-01T00:31:03.442Z,4.00
2023-05-01T00:33:30.290Z,4.00
2023-05-01T00:35:57.133Z,4.30
2023-05-01T00:38:24.564Z,3.80
2023-05-01T00:40:51.586Z,4.00
2023-05-01T00:43:18.320Z,4.10
2023-05-01T00:45:46.261Z,4.10
2023-05-01T00:48:13.302Z,3.70
2023-05-01T00:50:40.131Z,3.80
2023-05-01T00:53:06.838Z,3.70
2023-05-01T00:55:33.939Z,4.30
2023-05-01T00:58:00.970Z,4.20
2023-05-01T01:00:29.506Z,4.20
2023-05-01T01:02:56.831Z,4.20
2023-05-01T01:05:26.070Z,4.10
2023-05-01T01:08:18.752Z,4.00
2023-05-01T01:11:03.135Z,4.40
2023-05-01T01:13:34.033Z,5.10
2023-05-01T01:16:16.114Z,4.40
2023-05-01T01:18:47.365Z,6.00
2023-05-01T01:21:32.321Z,6.90
2023-05-01T01:24:04.315Z,8.50
2023-05-01T01:26:52.442Z,8.90
2023-05-01T01:29:38.193Z,8.00
2023-05-01T01:32:36.120Z,9.40
2023-05-01T01:35:07.972Z,9.50
2023-05-01T01:37:48.639Z,8.20
2023-05-01T01:40:17.254Z,7.10
2023-05-01T01:42:53.194Z,8.30
2023-05-01T01:45:23.833Z,7.80
2023-05-01T01:47:51.097Z,7.60
2023-05-01T01:50:17.776Z,7.30
2023-05-01T01:52:45.672Z,6.30
2023-05-01T01:55:13.418Z,7.30
2023-05-01T01:57:41.004Z,7.50
2023-05-01T02:00:11.274Z,7.10
2023-05-01T02:02:43.664Z,6.30
2023-05-01T02:05:13.745Z,4.80
2023-05-01T02:07:40.920Z,6.00
2023-05-01T02:10:09.584Z,5.80
2023-05-01T02:12:37.208Z,6.10
2023-05-01T02:15:05.354Z,6.90
2023-05-01T02:17:32.270Z,7.90
2023-05-01T02:19:59.123Z,6.40
2023-05-01T02:22:26.849Z,7.50
2023-05-01T02:24:54.414Z,7.60
2023-05-01T02:27:28.068Z,7.90
2023-05-01T02:29:55.092Z,8.50
2023-05-01T02:32:22.706Z,5.90
2023-05-01T02:34:49.989Z,7.70
2023-05-01T02:37:17.113Z,7.40
2023-05-01T02:39:44.070Z,6.80
2023-05-01T02:42:12.763Z,7.00
2023-05-01T02:44:44.393Z,6.80
2023-05-01T02:47:11.429Z,7.60
2023-05-01T02:49:38.903Z,7.00
2023-05-01T02:52:05.787Z,7.70
2023-05-01T02:54:32.755Z,7.90
2023-05-01T02:57:02.496Z,7.50
2023-05-01T02:59:29.348Z,6.80
2023-05-01T03:01:56.973Z,6.70
2023-05-01T03:04:23.937Z,6.80
2023-05-01T03:06:50.798Z,7.30
2023-05-01T03:09:17.671Z,6.20
2023-05-01T03:11:44.348Z,6.60
2023-05-01T03:14:11.397Z,6.60
2023-05-01T03:16:38.275Z,6.50
2023-05-01T03:19:06.117Z,6.40
2023-05-01T03:21:33.692Z,6.20
2023-05-01T03:24:00.583Z,5.50
2023-05-01T03:26:27.465Z,5.40
2023-05-01T03:28:54.328Z,5.10
2023-05-01T03:31:21.877Z,5.50
2023-05-01T03:33:48.695Z,5.40
2023-05-01T03:36:16.469Z,5.20
2023-05-01T03:38:43.495Z,4.90
2023-05-01T03:41:10.265Z,4.50
2023-05-01T03:43:39.908Z,4.40
2023-05-01T03:46:11.570Z,4.20
2023-05-01T03:48:38.778Z,4.30
2023-05-01T03:51:06.167Z,4.50
2023-05-01T03:53:33.202Z,4.10
2023-05-01T03:56:01.273Z,4.30
2023-05-01T03:58:28.624Z,4.80
2023-05-01T04:00:57.097Z,4.00
2023-05-01T04:03:24.327Z,4.10
2023-05-01T04:05:52.973Z,3.80
2023-05-01T04:08:19.763Z,3.60
2023-05-01T04:10:46.579Z,3.70
2023-05-01T04:13:13.666Z,3.60
2023-05-01T04:15:43.992Z,3.50
2023-05-01T04:18:10.868Z,3.70
2023-05-01T04:20:37.801Z,3.70
2023-05-01T04:23:05.442Z,3.60
2023-05-01T04:25:32.243Z,3.30
2023-05-01T04:28:07.668Z,3.30
2023-05-01T04:30:34.476Z,3.00
2023-05-01T04:33:01.982Z,2.80
2023-05-01T04:35:30.134Z,2.60
2023-05-01T04:37:56.975Z,2.70
2023-05-01T04:40:24.665Z,2.70
2023-05-01T04:42:51.587Z,2.30
2023-05-01T04:45:18.368Z,2.50
2023-05-01T04:47:45.542Z,2.40
2023-05-01T04:50:12.602Z,2.70
2023-05-01T04:52:40.322Z,2.50
2023-05-01T04:55:08.257Z,2.10
2023-05-01T04:57:36.612Z,2.00
2023-05-01T05:00:08.591Z,1.80
2023-05-01T05:02:41.770Z,2.00
2023-05-01T05:05:09.276Z,2.20
2023-05-01T05:07:36.389Z,2.10
2023-05-01T05:10:28.907Z,2.30
2023-05-01T05:13:13.792Z,1.70
2023-05-01T05:15:40.598Z,1.90
2023-05-01T05:18:08.783Z,1.80
2023-05-01T05:20:38.890Z,1.80
2023-05-01T05:23:07.363Z,2.20
2023-05-01T05:25:35.171Z,2.00
2023-05-01T05:28:01.998Z,1.90
2023-05-01T05:30:28.801Z,1.50
2023-05-01T05:32:56.499Z,1.80
2023-05-01T05:35:23.208Z,1.40
2023-05-01T05:37:50.691Z,1.90
2023-05-01T05:40:17.759Z,2.30
2023-05-01T05:42:53.633Z,1.90
2023-05-01T05:45:20.868Z,1.50
2023-05-01T05:47:47.811Z,1.70
2023-05-01T05:50:14.976Z,1.60
2023-05-01T05:52:43.124Z,1.90
2023-05-01T05:55:10.249Z,1.60
2023-05-01T05:57:37.949Z,1.60
2023-05-01T06:00:07.748Z,1.60
2023-05-01T06:02:39.212Z,1.70
2023-05-01T06:05:06.972Z,1.40
2023-05-01T06:07:33.764Z,1.70
2023-05-01T06:10:05.168Z,2.00
2023-05-01T06:12:32.092Z,1.70
2023-05-01T06:14:59.882Z,1.70
2023-05-01T06:17:27.171Z,1.30
2023-05-01T06:19:54.130Z,1.30
2023-05-01T06:22:21.456Z,1.30
2023-05-01T06:24:59.492Z,1.50
2023-05-01T06:27:26.961Z,2.00
2023-05-01T06:29:54.141Z,1.50
2023-05-01T06:32:21.036Z,1.40
2023-05-01T06:34:47.836Z,1.40
2023-05-01T06:37:14.695Z,1.20
2023-05-01T06:39:42.028Z,1.30
2023-05-01T06:42:11.412Z,1.00
2023-05-01T06:44:39.691Z,1.40
2023-05-01T06:47:06.614Z,1.20
2023-05-01T06:49:33.964Z,1.60
2023-05-01T06:52:00.803Z,1.30
2023-05-01T06:54:27.588Z,1.50
2023-05-01T06:56:54.791Z,1.30
2023-05-01T06:59:21.681Z,2.00
2023-05-01T07:01:48.479Z,1.20
2023-05-01T07:04:15.261Z,0.90
2023-05-01T07:06:42.030Z,1.60
2023-05-01T07:09:08.831Z,1.30
2023-05-01T07:11:35.882Z,1.20
2023-05-01T07:14:02.592Z,0.90
2023-05-01T07:16:29.555Z,1.10
2023-05-01T07:18:57.117Z,1.20
2023-05-01T07:21:24.039Z,0.70
2023-05-01T07:23:50.890Z,1.10
2023-05-01T07:26:17.694Z,0.90
2023-05-01T07:28:44.418Z,0.90
2023-05-01T07:31:11.163Z,0.80
2023-05-01T07:33:37.948Z,1.40
2023-05-01T07:36:04.875Z,1.40
2023-05-01T07:38:31.603Z,0.90
2023-05-01T07:40:58.334Z,1.20
2023-05-01T07:43:25.338Z,0.90
2023-05-01T07:46:01.725Z,1.10
2023-05-01T07:48:28.760Z,1.00
2023-05-01T07:50:56.638Z,0.90
2023-05-01T07:53:23.414Z,1.00
2023-05-01T07:55:50.312Z,1.80
2023-05-01T07:58:17.599Z,0.90
2023-05-01T08:00:47.268Z,1.00
2023-05-01T08:03:14.246Z,1.00
2023-05-01T08:05:41.929Z,1.10
2023-05-01T08:08:09.657Z,0.90
2023-05-01T08:10:36.714Z,0.90
2023-05-01T08:13:03.639Z,0.90
2023-05-01T08:16:56.446Z,1.00
2023-05-01T08:19:23.695Z,0.90
2023-05-01T08:21:50.652Z,1.00
2023-05-01T08:24:17.657Z,0.90
2023-05-01T08:26:44.426Z,0.70
2023-05-01T08:29:11.285Z,1.00
2023-05-01T08:31:39.290Z,1.10
2023-05-01T08:34:06.297Z,1.20
2023-05-01T08:36:34.288Z,0.90
2023-05-01T08:39:01.179Z,1.20
2023-05-01T08:41:28.691Z,0.80
2023-05-01T08:43:58.833Z,1.10
2023-05-01T08:46:29.270Z,1.10
2023-05-01T08:48:56.114Z,0.90
2023-05-01T08:51:25.716Z,1.20
2023-05-01T08:53:52.786Z,0.90
2023-05-01T08:56:20.365Z,0.90
2023-05-01T08:58:47.392Z,0.80
2023-05-01T09:01:15.641Z,1.10
2023-05-01T09:03:44.536Z,1.00
2023-05-01T09:06:11.684Z,1.10
2023-05-01T09:08:38.589Z,0.90
2023-05-01T09:11:06.380Z,0.90
2023-05-01T09:13:33.531Z,1.00
2023-05-01T09:16:01.245Z,0.90
2023-05-01T09:18:28.322Z,1.00
2023-05-01T09:20:55.503Z,1.10
2023-05-01T09:23:22.235Z,0.90
2023-05-01T09:25:51.435Z,0.80
2023-05-01T09:28:18.940Z,0.80
2023-05-01T09:30:46.353Z,1.00
2023-05-01T09:33:14.423Z,1.10
2023-05-01T09:35:54.909Z,1.00
2023-05-01T09:38:26.065Z,1.20
2023-05-01T09:40:54.090Z,0.90
2023-05-01T09:43:25.923Z,0.90
2023-05-01T09:46:05.009Z,1.10
2023-05-01T09:48:35.040Z,0.90
2023-05-01T09:51:20.008Z,1.00
2023-05-01T09:53:46.790Z,1.50
2023-05-01T09:56:14.844Z,1.30
2023-05-01T09:58:41.650Z,1.10
2023-05-01T10:01:08.822Z,1.00
2023-05-01T10:03:35.867Z,0.90
2023-05-01T10:06:04.384Z,0.90
2023-05-01T10:08:50.705Z,1.00
2023-05-01T10:11:17.516Z,1.30
2023-05-01T10:13:44.268Z,0.80
2023-05-01T10:16:28.894Z,0.80
2023-05-01T10:18:57.542Z,1.00
2023-05-01T10:21:24.453Z,0.90
2023-05-01T10:23:52.671Z,0.90
2023-05-01T10:26:20.628Z,1.10
2023-05-01T10:28:49.134Z,0.90
2023-05-01T10:31:16.804Z,0.80
2023-05-01T10:33:44.385Z,1.10
2023-05-01T10:36:13.917Z,1.00
2023-05-01T10:38:41.294Z,1.60
2023-05-01T10:41:09.246Z,0.90
2023-05-01T10:43:35.956Z,0.80
2023-05-01T10:46:21.263Z,0.60
2023-05-01T10:48:51.251Z,0.80
2023-05-01T10:51:25.702Z,1.00
2023-05-01T10:54:13.139Z,0.70
2023-05-01T10:56:40.602Z,0.70
2023-05-01T10:59:07.519Z,0.80
2023-05-01T11:01:48.082Z,1.00
2023-05-01T11:04:24.856Z,1.10
2023-05-01T11:07:11.575Z,0.80
2023-05-01T11:09:49.336Z,0.90
2023-05-01T11:12:36.769Z,0.80
2023-05-01T11:15:04.665Z,0.80
2023-05-01T11:17:43.767Z,1.60
2023-05-01T11:20:11.771Z,0.70
2023-05-01T11:22:49.072Z,0.80
2023-05-01T11:25:20.724Z,0.80
2023-05-01T11:27:55.258Z,1.10
2023-05-01T11:30:22.067Z,1.20
2023-05-01T11:32:49.453Z,1.20
2023-05-01T11:35:20.342Z,1.70
2023-05-01T11:37:47.308Z,16.50
2023-05-01T11:40:21.639Z,4.90
2023-05-01T11:42:49.022Z,0.90
2023-05-01T11:45:15.776Z,0.90
2023-05-01T11:47:42.539Z,0.80
2023-05-01T11:50:10.329Z,0.90
2023-05-01T11:52:49.655Z,1.20
2023-05-01T11:55:16.831Z,0.90
2023-05-01T11:57:50.942Z,1.00
2023-05-01T12:00:30.971Z,1.00
2023-05-01T12:03:06.500Z,1.90
2023-05-01T12:05:37.412Z,1.10
2023-05-01T12:10:43.663Z,1.20
2023-05-01T12:13:14.424Z,1.30
2023-05-01T12:15:43.207Z,0.80
2023-05-01T12:18:12.203Z,0.90
2023-05-01T12:20:47.480Z,1.20
2023-05-01T12:23:16.447Z,1.10
2023-05-01T12:25:43.969Z,1.30
2023-05-01T12:28:15.757Z,1.20
2023-05-01T12:30:43.095Z,1.00
2023-05-01T12:33:10.719Z,1.20
2023-05-01T12:35:37.874Z,1.00
2023-05-01T12:38:18.721Z,0.90
2023-05-01T12:40:55.816Z,1.50
2023-05-01T12:43:35.957Z,1.00
2023-05-01T12:46:03.875Z,1.30
2023-05-01T12:48:34.353Z,1.00
2023-05-01T12:51:01.352Z,1.30
2023-05-01T12:53:28.703Z,1.10
2023-05-01T12:55:56.831Z,1.00
2023-05-01T12:58:24.012Z,1.50
2023-05-01T13:00:55.218Z,1.10
2023-05-01T13:03:26.516Z,1.30
2023-05-01T13:05:58.674Z,1.20
2023-05-01T13:08:27.436Z,1.20
2023-05-01T13:10:57.126Z,1.00
2023-05-01T13:13:28.468Z,1.00
2023-05-01T13:18:30.686Z,1.10
2023-05-01T13:21:06.762Z,1.40
2023-05-01T13:23:33.478Z,1.10
2023-05-01T13:26:00.219Z,1.20
2023-05-01T13:28:26.946Z,1.40
2023-05-01T13:30:53.892Z,1.10
2023-05-01T13:33:20.612Z,1.10
2023-05-01T13:35:47.330Z,0.90
2023-05-01T13:38:14.104Z,1.10
2023-05-01T13:40:41.405Z,1.00
2023-05-01T13:43:13.746Z,1.30
2023-05-01T13:45:40.652Z,1.10
2023-05-01T13:48:07.532Z,1.30
2023-05-01T13:50:34.376Z,1.00
2023-05-01T13:53:01.445Z,1.10
2023-05-01T13:55:28.298Z,1.30
2023-05-01T13:57:55.072Z,1.40
2023-05-01T14:00:22.629Z,1.10
2023-05-01T14:02:49.708Z,1.00
2023-05-01T14:05:16.856Z,1.30
2023-05-01T14:07:53.516Z,1.10
2023-05-01T14:10:27.682Z,1.40
2023-05-01T14:12:58.772Z,1.10
2023-05-01T14:15:25.743Z,1.10
2023-05-01T14:17:53.135Z,1.10
2023-05-01T14:20:20.060Z,1.40
2023-05-01T14:22:48.109Z,1.30
2023-05-01T14:25:33.102Z,1.10
2023-05-01T14:28:01.154Z,1.30
2023-05-01T14:30:37.472Z,2.00
2023-05-01T14:33:11.761Z,1.80
2023-05-01T14:35:49.955Z,1.50
2023-05-01T14:38:17.962Z,1.40
2023-05-01T14:40:44.787Z,1.40
2023-05-01T14:43:17.484Z,1.20
2023-05-01T14:45:46.197Z,1.20
2023-05-01T14:48:35.909Z,1.50
2023-05-01T14:51:12.821Z,1.30
2023-05-01T14:53:41.953Z,1.50
2023-05-01T14:56:08.947Z,1.30
2023-05-01T14:58:36.182Z,1.60
2023-05-01T15:01:02.995Z,1.00
2023-05-01T15:03:30.147Z,1.70
2023-05-01T15:05:57.450Z,1.40
2023-05-01T15:08:24.600Z,1.50
2023-05-01T15:10:54.469Z,1.40
2023-05-01T15:13:21.386Z,1.40
2023-05-01T15:15:48.204Z,1.50
2023-05-01T15:18:15.246Z,1.10
2023-05-01T15:20:42.305Z,2.30
2023-05-01T15:23:09.931Z,1.40
2023-05-01T15:25:37.119Z,1.50
2023-05-01T15:28:03.988Z,1.50
2023-05-01T15:30:30.772Z,1.40
2023-05-01T15:32:57.631Z,1.00
2023-05-01T15:35:24.859Z,1.40
2023-05-01T15:37:51.828Z,1.30
2023-05-01T15:40:18.639Z,2.30
2023-05-01T15:42:47.989Z,1.80
2023-05-01T15:45:14.893Z,1.20
2023-05-01T15:47:41.804Z,1.60
2023-05-01T15:50:11.149Z,1.40
2023-05-01T15:52:38.494Z,1.50
2023-05-01T15:55:05.842Z,1.50
2023-05-01T15:57:34.220Z,1.20
2023-05-01T16:00:01.251Z,1.20
2023-05-01T16:02:32.995Z,2.10
2023-05-01T16:05:00.356Z,1.40
2023-05-01T16:07:28.983Z,1.60
2023-05-01T16:09:56.713Z,1.20
2023-05-01T16:12:23.916Z,1.60
2023-05-01T16:14:50.888Z,1.60
2023-05-01T16:17:18.330Z,1.20
2023-05-01T16:19:45.388Z,1.70
2023-05-01T16:22:12.946Z,1.60
2023-05-01T16:24:39.829Z,1.30
2023-05-01T16:27:07.475Z,1.30
2023-05-01T16:29:34.839Z,1.70
2023-05-01T16:32:04.178Z,2.10
2023-05-01T16:34:30.947Z,1.70
2023-05-01T16:36:58.291Z,1.30
2023-05-01T16:39:25.419Z,1.80
2023-05-01T16:41:53.809Z,1.60
2023-05-01T16:44:21.704Z,2.00
2023-05-01T16:46:56.152Z,1.50
2023-05-01T16:49:23.975Z,1.80
2023-05-01T16:51:51.044Z,1.90
2023-05-01T16:54:17.882Z,1.70
2023-05-01T16:56:44.595Z,2.00
2023-05-01T16:59:11.340Z,1.80
2023-05-01T17:01:38.099Z,1.70
2023-05-01T17:04:05.234Z,1.70
2023-05-01T17:06:32.587Z,2.00
2023-05-01T17:08:59.506Z,1.90
2023-05-01T17:11:28.244Z,1.80
2023-05-01T17:13:56.563Z,1.80
2023-05-01T17:16:23.390Z,2.70
2023-05-01T17:18:50.305Z,2.80
2023-05-01T17:21:17.151Z,2.10
2023-05-01T17:23:44.660Z,2.50
2023-05-01T17:26:11.480Z,2.80
2023-05-01T17:28:39.035Z,2.20
2023-05-01T17:31:06.026Z,2.30
2023-05-01T17:33:32.930Z,4.60
2023-05-01T17:36:00.886Z,1.80
2023-05-01T17:38:27.649Z,2.80
2023-05-01T17:40:54.392Z,2.00
2023-05-01T17:43:21.141Z,1.70
2023-05-01T17:45:49.596Z,2.60
2023-05-01T17:48:16.471Z,2.00
2023-05-01T17:50:44.634Z,2.30
2023-05-01T17:53:12.112Z,2.10
2023-05-01T17:55:40.277Z,2.10
2023-05-01T17:58:07.142Z,2.30
2023-05-01T18:00:35.134Z,2.50
2023-05-01T18:03:02.047Z,2.20
2023-05-01T18:05:28.975Z,2.10
2023-05-01T18:07:56.138Z,2.10
2023-05-01T18:10:22.839Z,1.90
2023-05-01T18:12:50.007Z,2.30
2023-05-01T18:15:22.113Z,2.50
2023-05-01T18:17:49.978Z,2.20
2023-05-01T18:20:16.845Z,1.90
2023-05-01T18:22:43.596Z,2.40
2023-05-01T18:25:10.302Z,2.50
2023-05-01T18:27:37.974Z,3.00
2023-05-01T18:30:05.252Z,3.40
2023-05-01T18:32:46.136Z,3.20
2023-05-01T18:35:15.769Z,3.00
2023-05-01T18:37:44.061Z,3.60
2023-05-01T18:40:11.554Z,2.70
2023-05-01T18:42:40.700Z,2.60
2023-05-01T18:45:08.060Z,2.50
2023-05-01T18:47:34.902Z,2.50
2023-05-01T18:50:02.140Z,2.10
2023-05-01T18:52:29.443Z,2.10
2023-05-01T18:54:56.177Z,2.80
2023-05-01T18:57:23.192Z,3.20
2023-05-01T18:59:49.969Z,2.90
2023-05-01T19:02:16.725Z,3.70
2023-05-01T19:04:56.586Z,2.80
2023-05-01T19:07:24.041Z,2.60
2023-05-01T19:09:51.028Z,2.50
2023-05-01T19:12:17.827Z,2.10
2023-05-01T19:14:44.571Z,2.10
2023-05-01T19:17:11.322Z,2.80
2023-05-01T19:19:38.062Z,2.20
2023-05-01T19:22:04.838Z,2.50
2023-05-01T19:24:31.631Z,2.10
2023-05-01T19:26:58.338Z,3.30
2023-05-01T19:29:25.999Z,2.70
2023-05-01T19:31:53.173Z,2.60
2023-05-01T19:34:20.752Z,2.40
2023-05-01T19:36:47.524Z,2.40
2023-05-01T19:39:14.284Z,2.60
2023-05-01T19:41:41.001Z,2.90
2023-05-01T19:44:08.188Z,2.60
2023-05-01T19:46:34.904Z,2.80
2023-05-01T19:49:01.656Z,2.90
2023-05-01T19:51:28.402Z,3.20
2023-05-01T19:53:55.140Z,2.50
2023-05-01T19:56:23.178Z,2.20
2023-05-01T19:58:50.023Z,2.60
2023-05-01T20:01:16.836Z,2.40
2023-05-01T20:03:43.692Z,2.40
2023-05-01T20:06:10.708Z,3.00
2023-05-01T20:08:37.719Z,2.70
2023-05-01T20:11:04.458Z,3.20
2023-05-01T20:13:31.534Z,3.30
2023-05-01T20:15:58.276Z,2.60
2023-05-01T20:18:25.250Z,3.00
2023-05-01T20:20:52.032Z,3.00
2023-05-01T20:23:19.612Z,3.20
2023-05-01T20:25:51.527Z,3.90
2023-05-01T20:28:18.353Z,4.40
2023-05-01T20:33:33.992Z,3.70
2023-05-01T20:36:00.711Z,3.40
2023-05-01T20:38:27.436Z,4.30
2023-05-01T20:40:54.131Z,4.40
2023-05-01T20:43:21.130Z,4.10
2023-05-01T20:45:48.003Z,3.60
2023-05-01T20:48:14.855Z,4.00
2023-05-01T20:50:43.755Z,3.80
2023-05-01T20:53:10.643Z,3.70
2023-05-01T20:55:37.330Z,3.20
2023-05-01T20:58:04.034Z,3.90
2023-05-01T21:00:30.736Z,3.70
2023-05-01T21:02:59.760Z,4.40
2023-05-01T21:05:27.090Z,3.80
2023-05-01T21:07:53.811Z,3.70
2023-05-01T21:10:20.550Z,4.40
2023-05-01T21:12:47.326Z,4.00
2023-05-01T21:15:14.038Z,4.50
2023-05-01T21:17:41.095Z,4.50
2023-05-01T21:20:12.041Z,4.70
2023-05-01T21:22:40.050Z,5.00
2023-05-01T21:25:07.796Z,4.20
2023-05-01T21:27:34.687Z,4.80
2023-05-01T21:30:01.857Z,5.60
2023-05-01T21:32:33.297Z,7.20
2023-05-01T21:35:03.329Z,4.70
2023-05-01T21:37:30.183Z,4.90
2023-05-01T21:40:01.118Z,4.20
2023-05-01T21:42:34.457Z,5.50
2023-05-01T21:45:06.024Z,4.60
2023-05-01T21:47:41.011Z,4.70
2023-05-01T21:50:09.739Z,5.00
2023-05-01T21:52:36.501Z,5.00
2023-05-01T21:55:07.402Z,5.20
2023-05-01T22:00:09.097Z,4.60
2023-05-01T22:02:38.742Z,5.40
2023-05-01T22:05:06.478Z,5.50
2023-05-01T22:07:34.213Z,6.00
2023-05-01T22:10:01.796Z,6.00
2023-05-01T22:12:28.612Z,5.90
2023-05-01T22:14:55.405Z,6.10
2023-05-01T22:17:25.396Z,5.50
2023-05-01T22:19:52.226Z,5.80
2023-05-01T22:22:19.467Z,6.10
2023-05-01T22:24:46.267Z,7.20
2023-05-01T22:27:13.091Z,6.50
2023-05-01T22:29:39.911Z,6.60
2023-05-01T22:32:06.760Z,4.60
2023-05-01T22:34:33.723Z,6.30
2023-05-01T22:37:00.503Z,6.10
2023-05-01T22:39:27.383Z,6.00
2023-05-01T22:41:54.096Z,6.80
2023-05-01T22:44:22.486Z,6.60
2023-05-01T22:46:49.968Z,7.00
2023-05-01T22:49:16.906Z,5.70
2023-05-01T22:51:43.637Z,5.80
2023-05-01T22:54:10.636Z,7.20
2023-05-01T22:56:37.646Z,6.70
2023-05-01T22:59:04.344Z,7.80
2023-05-01T23:01:31.246Z,7.00
2023-05-01T23:03:58.268Z,6.50
2023-05-01T23:06:25.370Z,7.20
2023-05-01T23:08:55.136Z,7.00
2023-05-01T23:11:22.085Z,6.60
2023-05-01T23:13:49.840Z,7.30
2023-05-01T23:16:16.846Z,6.60
2023-05-01T23:18:44.242Z,7.40
2023-05-01T23:21:11.534Z,6.90
2023-05-01T23:23:41.204Z,5.80
2023-05-01T23:26:08.050Z,7.30
2023-05-01T23:28:34.999Z,6.80
2023-05-01T23:31:02.595Z,8.30
2023-05-01T23:33:37.979Z,7.70
2023-05-01T23:36:12.711Z,6.40
2023-05-01T23:38:40.497Z,7.40
2023-05-01T23:41:10.349Z,6.90
2023-05-01T23:43:40.393Z,8.50
2023-05-01T23:46:07.663Z,8.40
2023-05-01T23:48:34.717Z,6.90
2023-05-01T23:51:01.795Z,8.10
2023-05-01T23:53:28.539Z,8.70
2023-05-01T23:55:55.351Z,8.60
2023-05-01T23:58:22.995Z,8.80
